Time;durP1;ratioP1;P1;durP2;ratioP2;P2;SDS_P1;SDS_P2;PMS_P1;PMS_P2;Temp;Humidity;BMP_temperature;BMP_pressure;BME280_temperature;BME280_humidity;BME280_pressure;Samples;Min_cycle;Max_cycle;Signal;HPM_P1;HPM_P2
2021/05/12 00:01:55;;;;;;;4.00;1.30;;;25.10;32.10;;;;;;5075443;28;20036;-57
2021/05/12 00:04:21;;;;;;;1.40;0.98;;;25.20;32.10;;;;;;5057910;28;20040;-56
2021/05/12 00:06:47;;;;;;;4.65;1.85;;;25.10;32.10;;;;;;5075965;28;20037;-57
2021/05/12 00:09:14;;;;;;;3.17;1.60;;;25.10;32.10;;;;;;5076144;28;20043;-57
2021/05/12 00:11:40;;;;;;;3.80;1.15;;;25.10;32.10;;;;;;5057469;28;20040;-57
2021/05/12 00:14:06;;;;;;;4.03;1.40;;;25.10;32.10;;;;;;5075940;28;20501;-57
2021/05/12 00:16:32;;;;;;;3.80;1.15;;;25.10;32.20;;;;;;5075873;28;20060;-57
2021/05/12 00:18:58;;;;;;;3.30;1.02;;;25.10;32.10;;;;;;5075750;28;20129;-57
2021/05/12 00:21:42;;;;;;;2.45;1.20;;;25.10;32.20;;;;;;5075780;28;20029;-57
2021/05/12 00:24:09;;;;;;;2.33;0.90;;;25.10;32.20;;;;;;5056799;28;20028;-57
2021/05/12 00:26:39;;;;;;;1.75;1.00;;;25.10;32.20;;;;;;5075213;28;20393;-57
2021/05/12 00:29:09;;;;;;;2.30;0.95;;;25.00;32.30;;;;;;5055612;28;20037;-57
2021/05/12 00:31:35;;;;;;;5.57;1.35;;;25.00;32.30;;;;;;5066779;28;20446;-57
2021/05/12 00:34:01;;;;;;;2.13;1.25;;;25.00;32.30;;;;;;5075913;28;20044;-57
2021/05/12 00:36:29;;;;;;;2.33;1.23;;;25.10;32.40;;;;;;5075153;28;20106;-57
2021/05/12 00:39:00;;;;;;;4.25;1.30;;;25.00;32.40;;;;;;5075457;28;20112;-58
2021/05/12 00:41:26;;;;;;;3.10;1.23;;;25.00;32.40;;;;;;5075389;28;20116;-57
2021/05/12 00:43:52;;;;;;;4.10;1.65;;;24.90;33.10;;;;;;5074959;28;20087;-58
2021/05/12 00:46:18;;;;;;;3.72;1.50;;;25.00;32.60;;;;;;5074653;28;20482;-58
2021/05/12 00:48:44;;;;;;;3.58;1.25;;;25.00;32.60;;;;;;5074821;28;20036;-57
2021/05/12 00:51:10;;;;;;;3.45;1.20;;;25.00;32.60;;;;;;5075070;28;20036;-57
2021/05/12 00:53:36;;;;;;;2.22;1.00;;;24.90;32.60;;;;;;5057480;28;20086;-57
2021/05/12 00:56:03;;;;;;;2.92;1.50;;;24.90;32.70;;;;;;5075039;28;20490;-57
2021/05/12 00:58:30;;;;;;;4.28;1.45;;;24.90;32.70;;;;;;5074815;28;20406;-57
2021/05/12 01:00:57;;;;;;;2.70;1.15;;;24.90;32.80;;;;;;5057048;28;20461;-57
2021/05/12 01:03:23;;;;;;;3.45;1.38;;;24.90;32.80;;;;;;5074847;28;20059;-57
2021/05/12 01:05:49;;;;;;;3.20;1.23;;;24.90;32.90;;;;;;5074301;28;20036;-57
2021/05/12 01:08:16;;;;;;;3.13;1.50;;;24.90;32.90;;;;;;5074656;28;20077;-57
2021/05/12 01:10:43;;;;;;;3.25;1.45;;;24.90;33.00;;;;;;5056971;28;20139;-57
2021/05/12 01:13:11;;;;;;;2.28;1.30;;;24.90;32.90;;;;;;5074842;28;20105;-59
2021/05/12 01:15:37;;;;;;;1.90;1.00;;;24.90;33.00;;;;;;5074737;28;20048;-57
2021/05/12 01:18:10;;;;;;;3.20;1.10;;;24.80;33.00;;;;;;5074571;28;20033;-58
2021/05/12 01:20:56;;;;;;;4.32;1.20;;;24.80;33.10;;;;;;5074623;28;20028;-57
2021/05/12 01:23:27;;;;;;;4.03;1.50;;;24.80;33.00;;;;;;5074408;28;20025;-56
2021/05/12 01:25:55;;;;;;;2.22;1.00;;;24.80;33.10;;;;;;5074954;28;20086;-57
2021/05/12 01:28:23;;;;;;;4.35;1.20;;;24.80;33.20;;;;;;5074089;28;20036;-58
2021/05/12 01:31:31;;;;;;;1.50;0.93;;;24.80;33.20;;;;;;5073830;28;20051;-57
2021/05/12 01:33:58;;;;;;;2.22;1.00;;;24.70;33.30;;;;;;4992779;28;20050;-58
2021/05/12 01:36:26;;;;;;;4.70;1.20;;;24.80;33.30;;;;;;4976445;28;20539;-58
2021/05/12 01:38:52;;;;;;;4.00;1.65;;;24.70;33.30;;;;;;4992478;28;20043;-58
2021/05/12 01:41:20;;;;;;;3.65;1.55;;;24.80;33.30;;;;;;4992668;28;20181;-58
2021/05/12 01:43:46;;;;;;;1.77;0.90;;;24.80;33.40;;;;;;4992810;28;20088;-58
2021/05/12 01:46:13;;;;;;;4.10;1.45;;;24.80;33.50;;;;;;4992592;28;20050;-58
2021/05/12 01:48:40;;;;;;;3.67;1.23;;;24.70;33.40;;;;;;4992737;28;20053;-58
2021/05/12 01:51:06;;;;;;;4.57;1.45;;;24.70;33.50;;;;;;4992709;28;20048;-58
2021/05/12 01:53:33;;;;;;;3.75;1.00;;;24.70;33.60;;;;;;4976524;28;20551;-58
2021/05/12 01:55:59;;;;;;;3.25;1.40;;;24.70;33.60;;;;;;4976364;28;20031;-57
2021/05/12 01:58:26;;;;;;;2.75;1.10;;;24.70;33.70;;;;;;4992056;28;20117;-57
2021/05/12 02:00:53;;;;;;;2.28;1.23;;;24.70;33.70;;;;;;4992353;28;20046;-58
2021/05/12 02:03:20;;;;;;;2.28;1.00;;;24.70;33.80;;;;;;4991839;28;20376;-57
2021/05/12 02:05:49;;;;;;;3.85;1.70;;;24.70;33.80;;;;;;4992238;28;20038;-57
2021/05/12 02:08:17;;;;;;;3.22;1.45;;;24.70;33.80;;;;;;4992024;28;20098;-57
2021/05/12 02:10:45;;;;;;;2.47;1.00;;;24.70;33.90;;;;;;5053435;28;20112;-57
2021/05/12 02:13:12;;;;;;;2.58;1.20;;;24.70;33.90;;;;;;5053567;28;20128;-57
2021/05/12 02:15:40;;;;;;;4.82;1.20;;;24.70;34.00;;;;;;5053541;28;20105;-58
2021/05/12 02:18:06;;;;;;;2.63;1.00;;;24.70;34.00;;;;;;5053157;28;20456;-57
2021/05/12 02:20:33;;;;;;;2.33;1.45;;;24.70;34.00;;;;;;5053345;28;20033;-57
2021/05/12 02:23:01;;;;;;;4.43;1.52;;;24.70;34.10;;;;;;5053452;28;20068;-58
2021/05/12 02:25:28;;;;;;;3.00;1.17;;;24.60;34.10;;;;;;5072536;28;20454;-57
2021/05/12 02:27:54;;;;;;;5.70;1.55;;;24.60;34.10;;;;;;5073174;28;20041;-58
2021/05/12 02:30:20;;;;;;;3.00;1.63;;;24.60;34.10;;;;;;5073348;28;20424;-57
2021/05/12 02:32:46;;;;;;;4.30;1.60;;;24.60;34.20;;;;;;5073308;28;20033;-58
2021/05/12 02:35:14;;;;;;;3.10;1.30;;;24.60;34.20;;;;;;5072920;28;20085;-57
2021/05/12 02:37:40;;;;;;;3.70;1.10;;;24.60;34.30;;;;;;5072794;28;20051;-57
2021/05/12 02:40:09;;;;;;;3.42;1.13;;;24.60;34.30;;;;;;5055305;28;20040;-57
2021/05/12 02:42:35;;;;;;;2.60;1.58;;;24.60;34.40;;;;;;5088563;28;20032;-58
2021/05/12 02:45:02;;;;;;;4.68;1.23;;;24.60;34.40;;;;;;5072870;28;20033;-57
2021/05/12 02:47:28;;;;;;;4.97;1.30;;;24.60;34.50;;;;;;5072934;28;20039;-57
2021/05/12 02:49:54;;;;;;;3.22;1.27;;;24.50;34.40;;;;;;5072901;28;20112;-57
2021/05/12 02:52:20;;;;;;;2.38;1.08;;;24.60;34.50;;;;;;5072853;28;20063;-57
2021/05/12 02:54:47;;;;;;;4.10;1.20;;;24.50;34.60;;;;;;5069127;28;20060;-57
2021/05/12 02:57:13;;;;;;;2.13;1.40;;;24.60;34.70;;;;;;5072966;28;20564;-57
2021/05/12 02:59:39;;;;;;;4.20;1.33;;;24.50;34.70;;;;;;5072774;28;20036;-57
2021/05/12 03:02:05;;;;;;;1.45;0.82;;;24.50;34.70;;;;;;5072908;28;20090;-57
2021/05/12 03:04:31;;;;;;;8.85;1.30;;;24.50;34.80;;;;;;5071478;28;20035;-57
2021/05/12 03:06:57;;;;;;;2.20;1.00;;;24.50;34.80;;;;;;5072795;28;20029;-58
2021/05/12 03:09:27;;;;;;;2.92;1.48;;;24.50;34.80;;;;;;5072616;28;20043;-58
2021/05/12 03:11:53;;;;;;;4.07;1.60;;;24.50;34.90;;;;;;5072838;28;20064;-57
2021/05/12 03:14:21;;;;;;;2.50;1.35;;;24.50;34.90;;;;;;5072160;28;20068;-57
2021/05/12 03:16:47;;;;;;;3.28;1.08;;;24.50;35.00;;;;;;5072039;28;20036;-57
2021/05/12 03:19:13;;;;;;;2.03;1.05;;;24.50;35.00;;;;;;5071217;28;20044;-58
2021/05/12 03:21:39;;;;;;;4.00;1.48;;;24.50;35.00;;;;;;5072796;28;20036;-58
2021/05/12 03:24:06;;;;;;;2.90;1.17;;;24.50;35.00;;;;;;5072252;28;20044;-58
2021/05/12 03:26:32;;;;;;;3.72;1.10;;;24.40;35.10;;;;;;5072579;28;20491;-58
2021/05/12 03:28:59;;;;;;;4.22;1.85;;;24.40;35.10;;;;;;5072499;28;20166;-58
2021/05/12 03:31:25;;;;;;;4.63;1.85;;;24.50;35.20;;;;;;5072568;28;20129;-58
2021/05/12 03:33:55;;;;;;;2.15;0.82;;;24.40;35.10;;;;;;5073019;28;20498;-57
2021/05/12 03:36:22;;;;;;;;;;;24.40;35.20;;;;;;5072787;28;20048;-58
2021/05/12 03:38:48;;;;;;;2.65;1.10;;;24.40;35.00;;;;;;5087993;28;19912;-58
2021/05/12 03:41:14;;;;;;;2.22;1.17;;;24.50;35.10;;;;;;5072775;28;20032;-58
2021/05/12 03:43:40;;;;;;;3.42;1.10;;;24.50;35.20;;;;;;5072592;28;20485;-58
2021/05/12 03:46:06;;;;;;;3.05;1.33;;;24.40;35.20;;;;;;5072732;28;20040;-58
2021/05/12 03:48:32;;;;;;;3.67;1.23;;;24.40;35.30;;;;;;5054532;28;20035;-58
2021/05/12 03:50:59;;;;;;;4.63;1.50;;;24.40;35.30;;;;;;5072404;28;20108;-58
2021/05/12 03:53:26;;;;;;;6.88;1.58;;;24.40;35.30;;;;;;5072480;28;20065;-58
2021/05/12 03:55:52;;;;;;;2.53;1.13;;;24.40;35.40;;;;;;5054406;28;20047;-58
2021/05/12 03:58:18;;;;;;;3.65;1.15;;;24.40;35.40;;;;;;5072229;28;20489;-56
2021/05/12 04:00:47;;;;;;;4.63;1.42;;;24.30;35.40;;;;;;5071709;28;20064;-56
2021/05/12 04:03:13;;;;;;;2.75;1.10;;;24.30;35.40;;;;;;5071985;28;20076;-58
2021/05/12 04:05:40;;;;;;;3.55;1.08;;;24.30;35.50;;;;;;5072441;28;20035;-57
2021/05/12 04:08:06;;;;;;;3.03;1.15;;;24.30;35.50;;;;;;5072149;28;20048;-58
2021/05/12 04:10:32;;;;;;;5.55;1.58;;;24.30;35.50;;;;;;5072309;28;20036;-58
2021/05/12 04:12:59;;;;;;;2.33;1.08;;;24.30;35.60;;;;;;5072249;28;20410;-58
2021/05/12 04:15:26;;;;;;;4.07;1.15;;;24.30;35.50;;;;;;5072294;28;20037;-58
2021/05/12 04:17:52;;;;;;;3.95;1.17;;;24.30;35.50;;;;;;5072244;28;20430;-58
2021/05/12 04:20:21;;;;;;;3.33;1.20;;;24.30;35.50;;;;;;5072119;28;20068;-58
2021/05/12 04:22:48;;;;;;;4.35;1.35;;;24.30;35.60;;;;;;5071980;28;20489;-58
2021/05/12 04:25:18;;;;;;;2.97;1.30;;;24.30;35.60;;;;;;5072003;28;20511;-58
2021/05/12 04:27:45;;;;;;;4.50;1.50;;;24.30;35.60;;;;;;5074782;28;20094;-58
2021/05/12 04:30:12;;;;;;;3.80;1.27;;;24.30;35.50;;;;;;5058009;28;20051;-58
2021/05/12 04:32:42;;;;;;;3.78;1.38;;;24.30;35.50;;;;;;5095922;28;20112;-58
2021/05/12 04:35:10;;;;;;;4.45;1.20;;;24.30;35.60;;;;;;5095740;28;20093;-58
2021/05/12 04:37:36;;;;;;;3.22;1.33;;;24.30;36.20;;;;;;5095028;28;20079;-58
2021/05/12 04:40:02;;;;;;;4.40;1.45;;;24.30;35.60;;;;;;5094902;28;20075;-58
2021/05/12 04:42:28;;;;;;;3.60;1.63;;;24.30;35.60;;;;;;5094674;28;20028;-57
2021/05/12 04:44:54;;;;;;;4.35;1.77;;;24.20;35.60;;;;;;5094572;28;20042;-57
2021/05/12 04:47:21;;;;;;;2.90;1.50;;;24.20;35.70;;;;;;5077504;28;20094;-57
2021/05/12 04:49:47;;;;;;;4.53;1.75;;;24.20;35.70;;;;;;5074467;28;20028;-57
2021/05/12 04:52:13;;;;;;;3.53;1.73;;;24.20;35.80;;;;;;5063887;28;20041;-57
2021/05/12 04:54:39;;;;;;;3.47;1.42;;;24.20;35.80;;;;;;5075207;28;20029;-57
2021/05/12 04:57:06;;;;;;;3.63;1.67;;;24.20;35.80;;;;;;5074190;28;20440;-57
2021/05/12 04:59:32;;;;;;;3.92;1.50;;;24.20;35.80;;;;;;5054645;28;20116;-58
2021/05/12 05:01:59;;;;;;;4.88;1.88;;;24.20;35.80;;;;;;5044336;28;20036;-58
2021/05/12 05:04:26;;;;;;;6.10;2.25;;;24.20;35.90;;;;;;5064575;28;20151;-58
2021/05/12 05:06:52;;;;;;;6.38;2.05;;;24.20;36.00;;;;;;5070724;28;20112;-58
2021/05/12 05:09:18;;;;;;;4.18;1.85;;;24.20;36.00;;;;;;5074510;28;20143;-58
2021/05/12 05:11:44;;;;;;;5.97;2.20;;;24.20;36.00;;;;;;5074409;28;20041;-57
2021/05/12 05:14:12;;;;;;;8.27;6.00;;;24.20;36.00;;;;;;5074533;28;20490;-58
2021/05/12 05:16:38;;;;;;;11.90;10.38;;;24.20;36.10;;;;;;5074852;28;20052;-58
2021/05/12 05:19:05;;;;;;;10.18;8.65;;;24.20;36.10;;;;;;5073296;28;20458;-52
2021/05/12 05:21:31;;;;;;;47.63;39.35;;;24.20;36.10;;;;;;5056483;28;20036;-52
2021/05/12 05:23:58;;;;;;;50.58;44.33;;;24.10;36.10;;;;;;5056684;28;20028;-52
2021/05/12 05:26:25;;;;;;;47.20;41.92;;;24.10;36.10;;;;;;5073419;28;20037;-52
2021/05/12 05:28:51;;;;;;;48.92;43.30;;;24.10;36.20;;;;;;5073015;28;20048;-53
2021/05/12 05:31:17;;;;;;;48.28;43.03;;;24.10;36.20;;;;;;5072702;28;20036;-52
2021/05/12 05:34:02;;;;;;;47.38;41.17;;;24.10;36.20;;;;;;5073286;28;20143;-53
2021/05/12 05:36:46;;;;;;;44.22;37.60;;;24.10;36.20;;;;;;5064960;28;20136;-52
2021/05/12 05:39:37;;;;;;;40.25;32.92;;;24.10;36.20;;;;;;5052072;28;20086;-52
2021/05/12 05:42:22;;;;;;;45.80;40.72;;;24.10;36.30;;;;;;5053267;28;20094;-52
2021/05/12 05:45:11;;;;;;;47.85;40.38;;;24.20;36.30;;;;;;5042680;28;20068;-52
2021/05/12 05:47:56;;;;;;;45.58;40.85;;;24.10;36.30;;;;;;5053282;28;20110;-53
2021/05/12 05:50:41;;;;;;;40.38;35.60;;;24.10;36.30;;;;;;5057087;28;20549;-54
2021/05/12 05:53:27;;;;;;;41.67;34.13;;;24.10;36.30;;;;;;5071730;28;20063;-52
2021/05/12 05:56:12;;;;;;;36.00;30.23;;;24.10;36.40;;;;;;5069021;28;20039;-53
2021/05/12 05:58:56;;;;;;;24.42;19.17;;;24.10;36.40;;;;;;5072193;28;20047;-53
2021/05/12 06:02:01;;;;;;;23.38;18.50;;;24.10;36.40;;;;;;4990827;28;20077;-54
2021/05/12 06:04:46;;;;;;;24.00;18.30;;;24.10;36.40;;;;;;4989792;28;20436;-53
2021/05/12 06:07:31;;;;;;;22.60;19.65;;;24.10;36.50;;;;;;4986843;28;20573;-53
2021/05/12 06:10:32;;;;;;;17.38;15.18;;;24.10;36.50;;;;;;4951586;29;20043;-53
2021/05/12 06:13:16;;;;;;;17.20;14.05;;;24.00;36.50;;;;;;4986779;28;20535;-53
2021/05/12 06:16:03;;;;;;;13.52;10.18;;;24.00;36.50;;;;;;4982037;28;20114;-53
2021/05/12 06:18:50;;;;;;;14.50;9.43;;;24.00;36.50;;;;;;4991469;28;20480;-53
2021/05/12 06:21:34;;;;;;;15.02;10.32;;;24.00;36.60;;;;;;4970814;28;20181;-53
2021/05/12 06:24:19;;;;;;;10.77;8.32;;;24.00;36.60;;;;;;4971022;28;20109;-53
2021/05/12 06:27:04;;;;;;;12.05;8.10;;;24.00;36.60;;;;;;4970649;28;20420;-53
2021/05/12 06:29:48;;;;;;;9.13;5.93;;;24.00;36.70;;;;;;4970735;28;20050;-53
2021/05/12 06:32:33;;;;;;;14.30;5.25;;;24.00;37.00;;;;;;5003102;28;20075;-54
2021/05/12 06:35:18;;;;;;;9.13;4.88;;;24.00;36.70;;;;;;5051812;28;20164;-53
2021/05/12 06:38:05;;;;;;;6.72;4.65;;;24.00;36.70;;;;;;5051533;28;20406;-54
2021/05/12 06:40:31;;;;;;;9.52;4.78;;;24.00;36.70;;;;;;5051399;28;20508;-53
2021/05/12 06:43:02;;;;;;;4.85;3.75;;;24.00;36.70;;;;;;5052345;28;20371;-53
2021/05/12 06:45:28;;;;;;;6.75;3.20;;;24.10;36.80;;;;;;5051236;28;20103;-53
2021/05/12 06:47:54;;;;;;;8.60;3.80;;;24.10;36.70;;;;;;5051477;28;20033;-53
2021/05/12 06:50:24;;;;;;;6.95;3.00;;;24.10;36.80;;;;;;5050942;28;20095;-53
2021/05/12 06:52:57;;;;;;;6.47;2.83;;;24.10;36.80;;;;;;5051426;28;20159;-52
2021/05/12 06:55:24;;;;;;;8.13;3.17;;;24.10;36.80;;;;;;5051165;28;20032;-52
2021/05/12 06:57:50;;;;;;;8.60;3.20;;;24.20;36.80;;;;;;5051134;28;20077;-52
2021/05/12 07:00:18;;;;;;;9.98;2.72;;;24.20;36.80;;;;;;5050967;28;20509;-51
2021/05/12 07:02:44;;;;;;;5.88;2.30;;;24.20;36.80;;;;;;5050736;28;20029;-51
2021/05/12 07:05:15;;;;;;;8.85;3.03;;;24.20;36.90;;;;;;5050938;28;20041;-51
2021/05/12 07:07:45;;;;;;;9.75;5.43;;;24.20;36.90;;;;;;5050637;28;20040;-54
2021/05/12 07:10:12;;;;;;;12.25;6.55;;;24.20;36.90;;;;;;5050428;28;20072;-54
2021/05/12 07:12:38;;;;;;;8.57;5.47;;;24.20;36.90;;;;;;5050664;28;20032;-55
2021/05/12 07:15:07;;;;;;;14.82;6.72;;;24.30;37.00;;;;;;5050610;28;20037;-55
2021/05/12 07:17:33;;;;;;;31.80;26.42;;;24.30;37.00;;;;;;5050194;28;20037;-55
2021/05/12 07:19:59;;;;;;;24.38;20.15;;;24.20;37.00;;;;;;5065928;28;20056;-55
2021/05/12 07:22:26;;;;;;;19.95;13.40;;;24.30;37.00;;;;;;5070262;28;20039;-55
2021/05/12 07:24:52;;;;;;;18.27;14.63;;;24.30;37.10;;;;;;5052829;28;20510;-54
2021/05/12 07:27:22;;;;;;;11.20;9.77;;;24.30;37.10;;;;;;5070388;28;20033;-54
2021/05/12 07:29:51;;;;;;;13.73;10.50;;;24.30;37.20;;;;;;5071010;28;20378;-54
2021/05/12 07:32:17;;;;;;;11.13;7.13;;;24.30;37.10;;;;;;5052756;28;20757;-54
2021/05/12 07:34:43;;;;;;;10.88;4.63;;;24.40;37.10;;;;;;5070811;28;20110;-54
2021/05/12 07:37:10;;;;;;;7.43;4.18;;;24.40;37.00;;;;;;5070493;28;20074;-54
2021/05/12 07:39:36;;;;;;;6.32;3.58;;;24.50;37.00;;;;;;5070675;28;20390;-54
2021/05/12 07:42:06;;;;;;;8.35;3.25;;;24.40;36.90;;;;;;5070571;28;20039;-54
2021/05/12 07:44:32;;;;;;;10.57;3.53;;;24.50;37.00;;;;;;5071288;28;20037;-55
2021/05/12 07:46:58;;;;;;;7.35;4.03;;;24.40;37.00;;;;;;5070748;28;20029;-54
2021/05/12 07:49:24;;;;;;;8.10;3.30;;;24.50;37.00;;;;;;5070620;28;20047;-54
2021/05/12 07:51:51;;;;;;;7.80;4.28;;;24.50;37.00;;;;;;5070626;28;20064;-53
2021/05/12 07:54:17;;;;;;;8.60;3.72;;;24.50;37.00;;;;;;5070626;28;20068;-53
2021/05/12 07:56:43;;;;;;;12.27;4.68;;;24.50;37.00;;;;;;5070470;28;20547;-54
2021/05/12 07:59:09;;;;;;;10.77;4.07;;;24.60;37.10;;;;;;5070590;28;20051;-54
2021/05/12 08:01:40;;;;;;;12.23;4.10;;;24.60;37.00;;;;;;5071606;28;20052;-54
2021/05/12 08:04:06;;;;;;;11.27;3.60;;;24.60;37.00;;;;;;5074385;28;20037;-54
2021/05/12 08:06:32;;;;;;;11.15;3.72;;;24.60;37.00;;;;;;5074433;28;20041;-54
2021/05/12 08:08:58;;;;;;;6.45;3.20;;;24.60;36.90;;;;;;5074540;28;20040;-54
2021/05/12 08:11:24;;;;;;;7.30;3.22;;;24.60;36.90;;;;;;5055843;28;20102;-54
2021/05/12 08:13:50;;;;;;;9.25;3.28;;;24.60;36.90;;;;;;5073795;28;20048;-54
2021/05/12 08:16:16;;;;;;;4.78;2.50;;;24.60;37.00;;;;;;5073088;28;20044;-54
2021/05/12 08:18:42;;;;;;;9.70;3.03;;;24.70;37.00;;;;;;5073045;28;20033;-54
2021/05/12 08:21:08;;;;;;;6.53;2.83;;;24.70;37.10;;;;;;5072959;28;20246;-54
2021/05/12 08:23:35;;;;;;;11.05;2.75;;;24.70;37.00;;;;;;5055124;28;20429;-54
2021/05/12 08:26:01;;;;;;;6.03;2.38;;;24.70;36.90;;;;;;5073016;28;20035;-54
2021/05/12 08:28:27;;;;;;;5.50;2.70;;;24.70;36.90;;;;;;5072439;28;20109;-54
2021/05/12 08:30:56;;;;;;;5.65;2.22;;;24.70;36.90;;;;;;5072724;28;20090;-54
2021/05/12 08:33:22;;;;;;;8.10;2.70;;;24.80;36.90;;;;;;5072508;28;20037;-54
2021/05/12 08:35:49;;;;;;;4.47;2.50;;;24.80;36.90;;;;;;5072142;28;20040;-59
2021/05/12 08:38:21;;;;;;;5.72;1.80;;;24.80;36.90;;;;;;5054976;28;20056;-53
2021/05/12 08:40:47;;;;;;;8.90;3.00;;;24.90;37.00;;;;;;5073317;28;20434;-54
2021/05/12 08:43:15;;;;;;;8.30;2.63;;;24.90;36.90;;;;;;5054935;28;20351;-53
2021/05/12 08:45:45;;;;;;;6.82;1.90;;;24.90;36.90;;;;;;5073318;28;20115;-54
2021/05/12 08:48:15;;;;;;;6.55;2.63;;;24.90;37.00;;;;;;5073008;28;20040;-53
2021/05/12 08:50:42;;;;;;;5.07;2.28;;;25.00;37.00;;;;;;5072242;28;20040;-53
2021/05/12 08:53:09;;;;;;;5.38;2.13;;;25.00;36.80;;;;;;5070341;28;20067;-54
2021/05/12 08:55:36;;;;;;;10.07;7.47;;;25.00;36.90;;;;;;5071459;28;20416;-55
2021/05/12 08:58:03;;;;;;;69.32;61.83;;;25.10;37.60;;;;;;5070515;28;20033;-55
2021/05/12 09:00:30;;;;;;;59.92;53.50;;;25.10;37.00;;;;;;5071664;28;20033;-54
2021/05/12 09:02:59;;;;;;;51.03;44.40;;;25.10;37.00;;;;;;5072210;28;20032;-54
2021/05/12 09:05:26;;;;;;;30.25;25.05;;;25.10;37.00;;;;;;5054699;28;20035;-54
2021/05/12 09:07:53;;;;;;;20.15;17.38;;;25.20;36.90;;;;;;5072778;28;20040;-54
2021/05/12 09:10:19;;;;;;;17.25;13.23;;;25.20;36.70;;;;;;5072394;28;20036;-55
2021/05/12 09:12:47;;;;;;;13.95;11.90;;;25.20;36.50;;;;;;5071787;28;20094;-55
2021/05/12 09:15:18;;;;;;;10.20;7.93;;;25.30;36.60;;;;;;5071954;28;20048;-55
2021/05/12 09:17:47;;;;;;;8.32;6.13;;;25.30;36.30;;;;;;5072050;28;20064;-54
2021/05/12 09:20:19;;;;;;;62.55;56.05;;;25.30;36.10;;;;;;5071685;28;20036;-54
2021/05/12 09:23:09;;;;;;;60.45;54.15;;;25.30;35.90;;;;;;5071692;28;20107;-54
2021/05/12 09:25:38;;;;;;;42.35;37.95;;;25.30;35.60;;;;;;5071127;28;20037;-55
2021/05/12 09:28:11;;;;;;;32.30;28.30;;;25.40;35.50;;;;;;5071758;28;20548;-55
2021/05/12 09:30:38;;;;;;;24.05;21.00;;;25.40;35.30;;;;;;5053861;28;20064;-54
2021/05/12 09:33:09;;;;;;;18.10;14.32;;;25.50;35.40;;;;;;5071874;28;20123;-55
2021/05/12 09:35:42;;;;;;;14.20;12.10;;;25.50;35.10;;;;;;5071707;28;20040;-55
2021/05/12 09:38:19;;;;;;;12.02;9.73;;;25.50;35.10;;;;;;5071176;28;20053;-55
2021/05/12 09:40:59;;;;;;;9.77;8.43;;;25.50;35.00;;;;;;5071340;28;20502;-55
2021/05/12 09:43:27;;;;;;;15.13;13.57;;;25.50;35.00;;;;;;5071696;28;20377;-55
2021/05/12 09:45:54;;;;;;;12.57;10.70;;;25.50;35.10;;;;;;5071210;28;20032;-56
2021/05/12 09:48:20;;;;;;;14.90;11.50;;;25.60;35.10;;;;;;5071097;28;20032;-55
2021/05/12 09:50:46;;;;;;;9.05;7.30;;;25.60;35.10;;;;;;5071060;28;20031;-55
2021/05/12 09:53:13;;;;;;;8.25;6.03;;;25.60;34.90;;;;;;5070875;28;20037;-55
2021/05/12 09:55:47;;;;;;;7.53;4.57;;;25.70;34.80;;;;;;5036184;28;20028;-55
2021/05/12 09:58:19;;;;;;;9.50;3.92;;;25.70;34.50;;;;;;5070862;28;20032;-54
2021/05/12 10:00:51;;;;;;;10.00;6.85;;;25.70;34.20;;;;;;5071752;28;20052;-55
2021/05/12 10:03:22;;;;;;;6.93;4.20;;;25.70;34.50;;;;;;5071774;28;20037;-54
2021/05/12 10:06:01;;;;;;;5.85;3.38;;;25.80;34.30;;;;;;5053888;28;20033;-55
2021/05/12 10:08:33;;;;;;;8.88;2.95;;;25.80;33.80;;;;;;5071861;28;20555;-55
2021/05/12 10:11:01;;;;;;;4.50;2.60;;;25.80;33.80;;;;;;5071865;28;20128;-55
2021/05/12 10:13:28;;;;;;;3.55;2.25;;;25.80;33.80;;;;;;5071581;28;20086;-55
2021/05/12 10:15:54;;;;;;;4.88;2.47;;;25.90;33.90;;;;;;5071663;28;20489;-55
2021/05/12 10:18:20;;;;;;;64.63;57.78;;;25.90;33.80;;;;;;5071821;28;20048;-55
2021/05/12 10:20:46;;;;;;;69.20;62.42;;;25.90;33.80;;;;;;5071332;28;20078;-55
2021/05/12 10:23:13;;;;;;;50.90;45.80;;;25.90;33.70;;;;;;5071453;28;20074;-55
2021/05/12 10:25:39;;;;;;;45.75;40.92;;;26.00;33.60;;;;;;5071326;28;20089;-55
2021/05/12 10:28:08;;;;;;;69.70;62.38;;;26.00;33.50;;;;;;5071302;28;20447;-55
2021/05/12 10:30:35;;;;;;;60.70;54.30;;;26.10;33.50;;;;;;5071574;28;20059;-55
2021/05/12 10:33:02;;;;;;;51.22;44.95;;;26.10;33.60;;;;;;5071248;28;20036;-55
2021/05/12 10:35:38;;;;;;;39.30;35.22;;;26.10;33.50;;;;;;5071362;28;20044;-55
2021/05/12 10:38:06;;;;;;;21.50;19.20;;;26.10;33.40;;;;;;5070856;28;20083;-54
2021/05/12 10:40:41;;;;;;;16.02;14.13;;;26.10;33.20;;;;;;5053348;28;20037;-54
2021/05/12 10:43:47;;;;;;;13.50;10.40;;;26.20;33.00;;;;;;5052994;28;20032;-54
2021/05/12 10:46:15;;;;;;;13.52;8.57;;;26.20;33.00;;;;;;5068874;28;20515;-55
2021/05/12 10:48:47;;;;;;;10.45;6.65;;;26.30;33.10;;;;;;5053229;28;20048;-55
2021/05/12 10:51:30;;;;;;;8.95;5.60;;;26.30;32.90;;;;;;5070960;28;20082;-55
2021/05/12 10:54:03;;;;;;;7.55;4.40;;;26.30;33.40;;;;;;5053244;28;20099;-55
2021/05/12 10:56:42;;;;;;;7.20;4.85;;;26.30;33.20;;;;;;5071000;28;20035;-55
2021/05/12 10:59:12;;;;;;;47.22;41.38;;;26.30;32.50;;;;;;5070713;28;20391;-55
2021/05/12 11:01:41;;;;;;;;;;;26.40;32.60;;;;;;5071743;28;20040;-54
2021/05/12 11:04:11;;;;;;;54.80;49.17;;;26.40;33.20;;;;;;5070494;28;19904;-54
2021/05/12 11:06:39;;;;;;;43.67;39.30;;;26.50;32.70;;;;;;5070845;28;20047;-54
2021/05/12 11:09:08;;;;;;;34.75;30.90;;;26.50;32.50;;;;;;5052539;28;20040;-55
2021/05/12 11:11:59;;;;;;;24.85;22.25;;;26.50;32.60;;;;;;5070820;28;20033;-54
2021/05/12 11:14:29;;;;;;;;;;;26.50;32.60;;;;;;5070762;28;20146;-54
2021/05/12 11:17:04;;;;;;;14.77;12.63;;;26.50;33.00;;;;;;5070665;28;20324;-55
2021/05/12 11:19:50;;;;;;;12.98;11.38;;;26.60;32.50;;;;;;5070524;28;20048;-55
2021/05/12 11:33:07;;;;;;;13.27;7.30;;;26.70;33.40;;;;;;5070421;28;20040;-56
2021/05/12 11:35:35;;;;;;;9.75;5.95;;;26.70;32.80;;;;;;5070502;28;20041;-55
2021/05/12 11:38:13;;;;;;;6.35;4.95;;;26.70;32.80;;;;;;5056251;28;20040;-56
2021/05/12 11:40:39;;;;;;;7.95;4.28;;;26.80;32.90;;;;;;5074847;28;20040;-55
2021/05/12 11:43:05;;;;;;;7.75;3.53;;;26.80;32.90;;;;;;5073307;28;20043;-54
2021/05/12 11:45:31;;;;;;;8.20;3.35;;;26.80;33.00;;;;;;5074533;28;20029;-54
2021/05/12 11:48:01;;;;;;;5.25;3.25;;;26.80;33.00;;;;;;5074224;28;20032;-55
2021/05/12 11:50:33;;;;;;;5.40;2.65;;;26.90;33.00;;;;;;5074229;28;20044;-54
2021/05/12 11:52:59;;;;;;;7.57;2.35;;;26.90;33.00;;;;;;5056298;28;20044;-54
2021/05/12 11:55:28;;;;;;;4.90;2.17;;;26.90;33.00;;;;;;5073788;28;20033;-55
2021/05/12 11:57:56;;;;;;;7.22;2.70;;;26.90;33.00;;;;;;5074266;28;20047;-55
2021/05/12 12:00:33;;;;;;;5.75;2.05;;;27.00;33.00;;;;;;5055790;28;20036;-55
2021/05/12 12:03:03;;;;;;;2.75;1.85;;;26.90;33.00;;;;;;5074126;28;20032;-55
2021/05/12 12:06:30;;;;;;;4.03;1.73;;;26.90;33.10;;;;;;5074102;28;20032;-55
2021/05/12 12:08:26;;;;;;;4.90;1.60;;;26.90;33.00;;;;;;5052245;28;20117;-55
2021/05/12 12:11:09;;;;;;;3.35;1.60;;;27.00;33.00;;;;;;5073682;28;20056;-55
2021/05/12 12:13:36;;;;;;;4.13;1.90;;;27.00;33.00;;;;;;5073873;28;20040;-55
2021/05/12 12:16:03;;;;;;;2.13;1.10;;;27.00;33.00;;;;;;5055731;28;20147;-54
2021/05/12 12:18:38;;;;;;;3.35;1.55;;;27.00;33.00;;;;;;5073628;28;20116;-55
2021/05/12 12:21:09;;;;;;;4.55;1.42;;;27.00;32.90;;;;;;5073983;28;20052;-54
2021/05/12 12:23:41;;;;;;;4.43;1.38;;;27.10;32.90;;;;;;5073387;28;20399;-55
2021/05/12 12:26:18;;;;;;;4.90;1.75;;;27.10;32.90;;;;;;5073431;28;20390;-55
2021/05/12 12:28:59;;;;;;;3.35;1.50;;;27.10;33.00;;;;;;5073552;28;20037;-55
2021/05/12 12:31:31;;;;;;;3.67;1.73;;;27.10;33.10;;;;;;5055667;28;20032;-55
2021/05/12 12:34:20;;;;;;;3.40;1.52;;;27.10;32.90;;;;;;5055686;28;20043;-55
2021/05/12 12:36:53;;;;;;;2.65;1.52;;;27.10;33.00;;;;;;5072988;28;20510;-55
2021/05/12 12:39:20;;;;;;;3.08;1.33;;;27.20;33.10;;;;;;5073139;28;20068;-55
2021/05/12 12:41:48;;;;;;;3.45;1.65;;;27.20;33.20;;;;;;5073112;28;20032;-55
2021/05/12 12:44:15;;;;;;;5.53;2.38;;;27.20;33.10;;;;;;5072807;28;20484;-55
2021/05/12 12:46:41;;;;;;;6.35;4.20;;;27.20;33.10;;;;;;5071950;28;20082;-55
2021/05/12 12:49:07;;;;;;;6.43;4.38;;;27.30;33.00;;;;;;5072035;28;20529;-55
2021/05/12 12:51:42;;;;;;;8.98;4.40;;;27.30;33.00;;;;;;5072045;28;20063;-55
2021/05/12 12:54:08;;;;;;;7.38;4.28;;;27.20;33.00;;;;;;5072217;28;20037;-56
2021/05/12 12:56:34;;;;;;;5.32;3.88;;;27.30;33.10;;;;;;5072882;28;20035;-55
2021/05/12 12:59:03;;;;;;;5.43;3.88;;;27.30;33.10;;;;;;5054900;28;20182;-55
2021/05/12 13:01:34;;;;;;;5.88;3.70;;;27.30;33.00;;;;;;5071426;28;20064;-55
2021/05/12 13:04:16;;;;;;;7.13;4.10;;;27.30;33.10;;;;;;5072795;28;20134;-55
2021/05/12 13:06:42;;;;;;;4.88;2.50;;;27.30;33.00;;;;;;5072535;28;20036;-55
2021/05/12 13:09:25;;;;;;;3.83;2.30;;;27.40;33.20;;;;;;5072427;28;20541;-55